TimeEST,TemperatureF,Dew PointF,Humidity,Sea Level PressureIn,VisibilityMPH,Wind Direction,Wind SpeedMPH,Gust SpeedMPH,PrecipitationIn,Events,Conditions,WindDirDegrees,DateUTC
12:15 AM,57.2,44.6,63,30.19,10.0,NNW,17.3,21.9,N/A,,Clear,340,2013-11-13 05:15:00
12:35 AM,57.2,44.6,63,30.19,10.0,North,17.3,-,N/A,,Clear,350,2013-11-13 05:35:00
12:55 AM,55.4,42.8,63,30.20,10.0,NNW,16.1,21.9,N/A,,Clear,340,2013-11-13 05:55:00
1:15 AM,55.4,41.0,58,30.21,10.0,North,12.7,-,N/A,,Clear,350,2013-11-13 06:15:00
1:35 AM,55.4,41.0,58,30.22,10.0,NNW,10.4,16.1,N/A,,Clear,340,2013-11-13 06:35:00
1:55 AM,53.6,41.0,62,30.23,10.0,North,12.7,-,N/A,,Clear,350,2013-11-13 06:55:00
2:15 AM,53.6,39.2,58,30.24,10.0,NNE,12.7,20.7,N/A,,Clear,20,2013-11-13 07:15:00
2:35 AM,53.6,37.4,54,30.23,9.0,NNE,15.0,20.7,N/A,,Clear,20,2013-11-13 07:35:00
2:55 AM,50.0,35.6,58,30.25,10.0,NNE,16.1,-,N/A,,Partly Cloudy,20,2013-11-13 07:55:00
3:15 AM,50.0,37.4,62,30.25,10.0,North,16.1,26.5,N/A,,Mostly Cloudy,10,2013-11-13 08:15:00
3:35 AM,50.0,37.4,62,30.27,10.0,NNE,16.1,24.2,N/A,,Overcast,20,2013-11-13 08:35:00
3:55 AM,48.2,37.4,66,30.28,10.0,North,13.8,-,N/A,,Overcast,360,2013-11-13 08:55:00
4:15 AM,48.2,37.4,66,30.28,10.0,North,12.7,23.0,N/A,,Overcast,360,2013-11-13 09:15:00
4:35 AM,48.2,37.4,66,30.29,10.0,North,15.0,21.9,N/A,,Overcast,360,2013-11-13 09:35:00
4:55 AM,48.2,37.4,66,30.30,10.0,North,15.0,20.7,N/A,,Overcast,360,2013-11-13 09:55:00
5:15 AM,46.4,37.4,71,30.31,10.0,NNE,16.1,25.3,N/A,,Overcast,20,2013-11-13 10:15:00
5:35 AM,46.4,37.4,71,30.33,10.0,North,12.7,-,N/A,,Overcast,10,2013-11-13 10:35:00
5:55 AM,46.4,35.6,66,30.34,10.0,North,11.5,19.6,N/A,,Overcast,10,2013-11-13 10:55:00
6:15 AM,44.6,35.6,71,30.35,10.0,North,16.1,-,N/A,,Overcast,360,2013-11-13 11:15:00
6:35 AM,44.6,35.6,71,30.36,10.0,North,10.4,-,N/A,,Overcast,10,2013-11-13 11:35:00
6:50 AM,44.6,35.6,71,30.36,10.0,North,20.7,26.5,N/A,,Overcast,360,2013-11-13 11:50:00
7:50 AM,42.8,33.8,70,30.38,10.0,North,15.0,21.9,N/A,,Overcast,360,2013-11-13 12:50:00
8:50 AM,41.0,32.0,70,30.40,10.0,North,17.3,-,N/A,,Overcast,10,2013-11-13 13:50:00
9:50 AM,44.6,33.8,66,30.42,10.0,North,13.8,20.7,N/A,,Overcast,10,2013-11-13 14:50:00
10:50 AM,46.4,35.6,66,30.43,10.0,North,17.3,25.3,N/A,,Overcast,360,2013-11-13 15:50:00
11:50 AM,50.0,35.6,58,30.42,10.0,NNE,13.8,27.6,N/A,,Mostly Cloudy,30,2013-11-13 16:50:00
12:50 PM,51.8,35.6,54,30.41,10.0,NNE,23.0,-,N/A,,Mostly Cloudy,30,2013-11-13 17:50:00
1:50 PM,50.0,35.6,58,30.40,10.0,NE,23.0,-,N/A,,Mostly Cloudy,40,2013-11-13 18:50:00
2:50 PM,50.0,35.6,58,30.40,10.0,NE,17.3,25.3,N/A,,Mostly Cloudy,40,2013-11-13 19:50:00
3:50 PM,50.0,35.6,58,30.40,10.0,NNE,16.1,24.2,N/A,,Scattered Clouds,30,2013-11-13 20:50:00
4:50 PM,50.0,35.6,58,30.41,10.0,NNE,13.8,20.7,N/A,,Partly Cloudy,30,2013-11-13 21:50:00
5:50 PM,46.4,33.8,62,30.43,10.0,NNE,8.1,-,N/A,,Clear,20,2013-11-13 22:50:00
6:50 PM,42.8,33.8,70,30.44,10.0,NNE,6.9,-,N/A,,Clear,20,2013-11-13 23:50:00
7:50 PM,41.0,32.0,70,30.45,10.0,NNE,8.1,-,N/A,,Clear,20,2013-11-14 00:50:00
8:15 PM,41.0,30.2,65,30.45,10.0,North,8.1,-,N/A,,Clear,360,2013-11-14 01:15:00
8:35 PM,41.0,30.2,65,30.45,10.0,North,6.9,-,N/A,,Clear,360,2013-11-14 01:35:00
8:55 PM,41.0,30.2,65,30.45,10.0,North,6.9,-,N/A,,Clear,10,2013-11-14 01:55:00
9:15 PM,39.2,30.2,70,30.45,10.0,North,5.8,-,N/A,,Clear,360,2013-11-14 02:15:00
9:35 PM,39.2,30.2,70,30.45,10.0,North,5.8,-,N/A,,Clear,360,2013-11-14 02:35:00
9:55 PM,39.2,30.2,70,30.45,10.0,North,5.8,-,N/A,,Clear,360,2013-11-14 02:55:00
10:15 PM,39.2,28.4,65,30.45,10.0,North,8.1,-,N/A,,Clear,360,2013-11-14 03:15:00
10:35 PM,39.2,28.4,65,30.44,10.0,North,8.1,-,N/A,,Clear,360,2013-11-14 03:35:00
10:55 PM,41.0,28.4,61,30.44,10.0,North,9.2,-,N/A,,Clear,360,2013-11-14 03:55:00
11:15 PM,39.2,28.4,65,30.43,10.0,North,9.2,-,N/A,,Clear,360,2013-11-14 04:15:00
11:35 PM,41.0,28.4,61,30.42,10.0,North,9.2,-,N/A,,Clear,360,2013-11-14 04:35:00
11:55 PM,41.0,28.4,61,30.41,10.0,North,9.2,-,N/A,,Clear,360,2013-11-14 04:55:00